Debian Mirror - Bettembourg, LU

Arches: amd64 all source


/debian/pool/main/k/kineticstools/
File Name  ↓ File Size  ↓ Date  ↓ 
--
46.1 KiB2025-Sep-25 19:07
20.7 MiB2025-Sep-25 19:02
14.7 KiB2025-Sep-25 19:02
2.3 KiB2025-Sep-25 18:37
11.0 KiB2025-Sep-25 18:37
45.9 KiB2025-Feb-09 14:06
20.7 MiB2025-Feb-09 14:01
14.6 KiB2025-Feb-09 14:01
10.9 KiB2025-Feb-09 13:30
2.7 KiB2025-Feb-09 13:30
45.7 KiB2023-Jan-03 11:11
20.7 MiB2022-Dec-21 17:12
14.2 KiB2022-Dec-21 17:12
2.1 KiB2022-Dec-21 16:42
10.1 KiB2022-Dec-21 16:42
20.8 MiB2022-Mar-05 15:06
46.0 KiB2020-Dec-07 09:56
14.6 KiB2020-Nov-26 12:05
20.7 MiB2020-Nov-26 12:05
2.7 KiB2020-Nov-26 11:40
10.1 KiB2020-Nov-26 11:40
20.8 MiB2020-Nov-26 11:40

Sponsored by

MikeNetworks SARL-S NovaNode StratoNexus